Time;durP1;ratioP1;P1;durP2;ratioP2;P2;SDS_P1;SDS_P2;PMS_P1;PMS_P2;Temp;Humidity;BMP_temperature;BMP_pressure;BME280_temperature;BME280_humidity;BME280_pressure;Samples;Min_cycle;Max_cycle;Signal;HPM_P1;HPM_P2
2023/03/20 00:02:38;;;;;;;2.85;1.60;;;5.30;99.90;;;;;;8166374;29;20019;-78
2023/03/20 00:06:39;;;;;;;2.20;1.63;;;5.00;99.90;;;;;;8166222;29;20119;-80
2023/03/20 00:10:43;;;;;;;1.95;1.70;;;5.10;99.90;;;;;;8164886;29;20388;-78
2023/03/20 00:14:44;;;;;;;2.70;1.88;;;4.80;99.90;;;;;;8165818;29;20028;-79
2023/03/20 00:18:45;;;;;;;3.47;1.38;;;4.60;99.90;;;;;;8164025;29;20028;-79
2023/03/20 00:22:46;;;;;;;2.42;1.80;;;4.40;99.90;;;;;;8164660;29;20075;-78
2023/03/20 00:26:48;;;;;;;3.75;1.80;;;4.50;99.90;;;;;;8164424;29;20571;-78
2023/03/20 00:30:49;;;;;;;2.28;1.52;;;4.40;99.90;;;;;;8166264;29;20019;-78
2023/03/20 00:34:49;;;;;;;2.83;1.75;;;4.30;99.90;;;;;;8165034;29;20030;-79
2023/03/20 00:38:50;;;;;;;3.70;1.92;;;4.30;99.90;;;;;;8164355;29;20035;-78
2023/03/20 00:42:58;;;;;;;2.17;1.83;;;4.30;99.90;;;;;;8166266;29;20023;-79
2023/03/20 00:47:15;;;;;;;2.78;1.90;;;4.30;99.90;;;;;;8158894;29;20537;-80
2023/03/20 00:51:16;;;;;;;4.35;2.00;;;4.40;99.90;;;;;;8166887;29;20032;-78
2023/03/20 00:55:19;;;;;;;2.50;1.80;;;4.40;99.90;;;;;;8166321;29;20050;-78
2023/03/20 00:59:22;;;;;;;2.58;1.95;;;4.30;99.90;;;;;;8164927;29;20433;-78
2023/03/20 01:03:25;;;;;;;2.58;1.73;;;4.30;99.90;;;;;;8164130;29;20560;-78
2023/03/20 01:07:26;;;;;;;4.28;1.60;;;4.10;99.90;;;;;;8163523;29;20031;-78
2023/03/20 01:11:27;;;;;;;3.05;1.83;;;4.30;99.90;;;;;;8163801;29;20086;-78
2023/03/20 01:15:31;;;;;;;2.65;1.90;;;4.50;99.90;;;;;;8163822;29;20027;-79
2023/03/20 01:19:32;;;;;;;3.42;1.90;;;4.60;99.90;;;;;;8163517;29;20028;-80
2023/03/20 01:23:32;;;;;;;4.25;1.70;;;4.40;99.90;;;;;;8165009;29;20036;-79
2023/03/20 01:27:33;;;;;;;2.17;1.58;;;4.30;99.90;;;;;;8164831;29;20039;-79
2023/03/20 01:31:33;;;;;;;2.65;1.70;;;4.30;99.90;;;;;;8164340;29;20035;-79
2023/03/20 01:35:34;;;;;;;3.10;1.95;;;4.10;99.90;;;;;;8163702;29;20028;-79
2023/03/20 01:39:36;;;;;;;1.50;1.38;;;4.10;99.90;;;;;;8165107;29;20040;-78
2023/03/20 01:43:36;;;;;;;3.33;1.40;;;4.00;99.90;;;;;;8166098;29;20020;-79
2023/03/20 01:47:37;;;;;;;3.55;1.80;;;4.10;99.90;;;;;;8167184;29;20028;-77
2023/03/20 01:51:37;;;;;;;2.45;1.83;;;4.30;99.90;;;;;;8171107;29;20028;-78
2023/03/20 01:55:40;;;;;;;3.20;2.17;;;4.50;99.90;;;;;;8169322;29;20027;-78
2023/03/20 01:59:44;;;;;;;3.40;2.10;;;4.60;99.90;;;;;;8170248;29;20028;-78
2023/03/20 02:03:49;;;;;;;1.85;1.48;;;4.70;99.90;;;;;;8168898;29;20032;-79
2023/03/20 02:07:57;;;;;;;3.08;2.03;;;4.80;99.90;;;;;;8169585;29;20023;-79
2023/03/20 02:11:58;;;;;;;3.10;1.85;;;4.70;99.90;;;;;;8163818;29;20180;-78
2023/03/20 02:16:08;;;;;;;3.05;1.90;;;4.20;99.90;;;;;;8169826;29;20104;-79
2023/03/20 02:20:22;;;;;;;2.85;1.65;;;3.80;99.90;;;;;;8171155;29;20034;-78
2023/03/20 02:25:04;;;;;;;2.78;2.10;;;3.60;99.90;;;;;;8168607;29;20059;-77
2023/03/20 02:29:44;;;;;;;2.47;1.70;;;3.50;99.90;;;;;;8164838;29;20026;-78
2023/03/20 02:34:16;;;;;;;3.05;2.10;;;3.60;99.90;;;;;;8168532;29;20022;-78
2023/03/20 02:38:27;;;;;;;4.30;2.70;;;3.70;99.90;;;;;;8164042;29;20622;-78
2023/03/20 02:47:30;;;;;;;3.10;2.15;;;4.00;99.90;;;;;;8160857;29;20042;-79
2023/03/20 02:51:47;;;;;;;3.40;2.38;;;4.20;99.90;;;;;;8169331;29;20106;-78
2023/03/20 02:55:56;;;;;;;3.67;2.42;;;4.30;99.90;;;;;;8168024;29;20024;-79
2023/03/20 03:00:07;;;;;;;4.07;2.65;;;4.50;99.90;;;;;;8168744;29;20027;-79
2023/03/20 03:04:15;;;;;;;3.58;2.45;;;4.60;99.90;;;;;;8167771;29;20024;-80
2023/03/20 03:08:18;;;;;;;6.00;2.67;;;4.60;99.90;;;;;;8168512;29;20050;-79
2023/03/20 03:12:23;;;;;;;3.72;2.35;;;4.70;99.90;;;;;;8167265;29;20019;-79
2023/03/20 03:16:28;;;;;;;3.50;2.35;;;4.80;99.90;;;;;;8167981;29;20027;-79
2023/03/20 03:20:36;;;;;;;3.65;2.63;;;5.00;99.90;;;;;;8166904;29;20046;-79
2023/03/20 03:24:44;;;;;;;3.58;2.50;;;5.10;99.90;;;;;;8167628;29;20028;-80
2023/03/20 03:28:52;;;;;;;3.60;2.33;;;5.10;99.90;;;;;;8168755;29;20095;-79
2023/03/20 03:33:16;;;;;;;3.35;2.47;;;5.20;99.90;;;;;;8167583;29;20499;-78
2023/03/20 03:37:50;;;;;;;3.20;2.40;;;5.20;99.90;;;;;;8163426;29;20036;-78
2023/03/20 03:42:10;;;;;;;3.45;2.38;;;5.20;99.90;;;;;;8147541;29;20047;-78
2023/03/20 03:46:26;;;;;;;3.05;2.53;;;5.50;99.90;;;;;;8161064;29;20026;-78
2023/03/20 03:50:50;;;;;;;4.18;2.97;;;5.60;99.90;;;;;;8166579;29;20098;-77
2023/03/20 03:55:06;;;;;;;3.35;2.53;;;5.70;99.90;;;;;;8165202;29;20024;-79
2023/03/20 03:59:23;;;;;;;3.30;2.60;;;5.80;99.90;;;;;;8161236;29;20066;-79
2023/03/20 04:03:31;;;;;;;3.90;2.92;;;5.80;99.90;;;;;;8164290;29;20138;-78
2023/03/20 04:07:32;;;;;;;8.32;4.13;;;6.10;99.90;;;;;;8163866;29;20082;-78
2023/03/20 04:11:34;;;;;;;9.07;4.07;;;6.20;99.90;;;;;;8163002;29;20473;-78
2023/03/20 04:15:35;;;;;;;6.38;3.65;;;6.10;99.90;;;;;;8163417;29;20048;-79
2023/03/20 04:19:35;;;;;;;5.72;4.20;;;6.20;99.90;;;;;;8164821;29;20400;-78
2023/03/20 04:23:36;;;;;;;8.07;4.68;;;6.10;99.90;;;;;;8163556;29;20032;-78
2023/03/20 04:27:37;;;;;;;7.60;4.38;;;6.10;99.90;;;;;;8164462;29;20039;-78
2023/03/20 04:31:37;;;;;;;7.13;4.50;;;6.30;99.90;;;;;;8162941;29;20568;-78
2023/03/20 04:35:38;;;;;;;7.55;4.47;;;6.40;99.90;;;;;;8140402;29;20028;-79
2023/03/20 04:39:41;;;;;;;8.65;4.72;;;6.50;99.90;;;;;;8162825;29;20042;-78
2023/03/20 04:43:41;;;;;;;7.97;5.38;;;6.50;99.90;;;;;;8141964;29;20031;-78
2023/03/20 04:47:42;;;;;;;7.90;5.28;;;6.30;99.90;;;;;;8159188;29;20544;-78
2023/03/20 04:51:42;;;;;;;8.45;5.53;;;6.30;99.90;;;;;;8144150;29;20062;-77
2023/03/20 04:55:44;;;;;;;6.60;4.10;;;6.30;99.90;;;;;;8145194;29;20119;-78
2023/03/20 04:59:45;;;;;;;9.38;5.13;;;6.40;99.90;;;;;;8161633;29;20441;-79
2023/03/20 05:03:45;;;;;;;6.70;4.53;;;6.20;99.90;;;;;;8161642;29;20074;-79
2023/03/20 05:07:46;;;;;;;7.25;4.50;;;6.10;99.90;;;;;;8162685;29;20528;-78
2023/03/20 05:11:46;;;;;;;7.03;5.10;;;6.10;99.90;;;;;;8162866;29;20572;-78
2023/03/20 05:15:47;;;;;;;10.52;5.47;;;6.10;99.90;;;;;;8161202;29;20027;-78
2023/03/20 05:19:48;;;;;;;9.13;5.68;;;6.10;99.90;;;;;;8163242;29;20031;-78
2023/03/20 05:23:49;;;;;;;7.78;4.63;;;6.10;99.90;;;;;;8165277;29;20055;-78
2023/03/20 05:27:50;;;;;;;9.15;5.88;;;6.20;99.90;;;;;;8169484;29;20023;-77
2023/03/20 05:31:50;;;;;;;8.30;4.85;;;6.40;99.90;;;;;;8167754;29;20035;-78
2023/03/20 05:35:51;;;;;;;8.13;5.70;;;6.40;99.90;;;;;;8167214;29;20524;-78
2023/03/20 05:39:51;;;;;;;8.07;5.18;;;6.50;99.90;;;;;;8163383;29;20086;-78
2023/03/20 05:43:52;;;;;;;7.72;4.95;;;6.50;99.90;;;;;;8167386;29;20032;-78
2023/03/20 05:47:52;;;;;;;9.10;5.18;;;6.80;99.90;;;;;;8166822;29;20123;-79
2023/03/20 05:51:53;;;;;;;10.57;6.60;;;7.00;99.90;;;;;;8168350;29;20028;-79
2023/03/20 05:55:54;;;;;;;9.20;5.82;;;6.90;99.90;;;;;;8167509;29;20111;-79
2023/03/20 05:59:54;;;;;;;9.18;6.05;;;6.70;99.90;;;;;;8161392;29;20028;-78
2023/03/20 06:03:55;;;;;;;10.35;6.30;;;6.60;99.90;;;;;;8168116;29;20523;-79
2023/03/20 06:07:55;;;;;;;9.35;5.50;;;6.80;99.90;;;;;;8167497;29;20032;-78
2023/03/20 06:11:56;;;;;;;144.98;43.13;;;6.70;99.90;;;;;;8167939;29;20090;-78
2023/03/20 06:15:56;;;;;;;9.63;5.53;;;6.80;99.90;;;;;;8168323;29;20035;-77
2023/03/20 06:19:57;;;;;;;11.68;5.72;;;6.80;99.90;;;;;;8168148;29;20484;-78
2023/03/20 06:23:58;;;;;;;9.45;5.72;;;6.90;99.90;;;;;;8169670;29;20038;-78
2023/03/20 06:27:59;;;;;;;9.00;5.25;;;7.10;99.90;;;;;;8168313;29;20499;-78
2023/03/20 06:31:59;;;;;;;7.30;4.80;;;7.30;99.90;;;;;;8164067;29;20083;-78
2023/03/20 06:36:00;;;;;;;8.95;4.90;;;7.40;99.90;;;;;;8165009;29;20042;-79
2023/03/20 06:40:02;;;;;;;7.45;4.70;;;7.30;99.90;;;;;;8166136;29;20290;-79
2023/03/20 06:44:03;;;;;;;7.10;4.63;;;7.40;99.90;;;;;;8165456;29;20027;-79
2023/03/20 06:48:08;;;;;;;8.18;4.97;;;7.60;99.90;;;;;;8166649;29;20031;-79
2023/03/20 06:52:17;;;;;;;6.78;4.55;;;7.80;99.90;;;;;;8165833;29;20023;-78
2023/03/20 06:56:17;;;;;;;6.93;4.15;;;8.10;99.90;;;;;;8166670;29;20059;-79
2023/03/20 07:00:20;;;;;;;5.97;4.20;;;8.30;99.90;;;;;;8166478;29;20055;-78
2023/03/20 07:04:21;;;;;;;6.30;4.32;;;8.60;99.90;;;;;;8165960;29;20405;-78
2023/03/20 07:08:22;;;;;;;7.68;4.03;;;8.80;99.90;;;;;;8165110;29;20048;-78
2023/03/20 07:12:27;;;;;;;8.32;4.97;;;8.70;99.90;;;;;;8166034;29;20024;-79
2023/03/20 07:16:27;;;;;;;5.57;3.95;;;8.70;99.90;;;;;;8164703;29;20083;-78
2023/03/20 07:20:28;;;;;;;5.75;4.20;;;8.80;99.90;;;;;;8166181;29;20625;-78
2023/03/20 07:24:29;;;;;;;6.07;4.32;;;8.90;99.90;;;;;;8166738;29;20506;-78
2023/03/20 07:28:30;;;;;;;6.22;4.25;;;9.10;99.90;;;;;;8166579;29;20480;-78
2023/03/20 07:32:30;;;;;;;5.68;3.70;;;9.40;99.90;;;;;;8164853;29;20043;-79
2023/03/20 07:36:31;;;;;;;5.50;3.55;;;9.30;99.90;;;;;;8149219;29;20023;-78
2023/03/20 07:40:32;;;;;;;5.25;3.13;;;9.30;99.90;;;;;;8166124;29;20031;-80
2023/03/20 07:44:33;;;;;;;6.45;3.53;;;9.30;99.90;;;;;;8165289;29;20028;-79
2023/03/20 07:48:34;;;;;;;5.07;3.38;;;9.20;99.90;;;;;;8164431;29;20425;-78
2023/03/20 07:52:35;;;;;;;5.55;2.97;;;9.40;99.90;;;;;;8164789;29;20026;-78
2023/03/20 07:56:36;;;;;;;4.40;3.20;;;9.90;99.90;;;;;;8163356;29;20715;-78
2023/03/20 08:00:36;;;;;;;3.75;2.53;;;10.20;99.90;;;;;;8163005;29;20404;-78
2023/03/20 08:04:38;;;;;;;2.40;1.80;;;10.40;99.90;;;;;;8162314;29;20042;-77
2023/03/20 08:08:38;;;;;;;4.80;2.30;;;10.70;99.90;;;;;;8163298;29;20426;-78
2023/03/20 08:12:39;;;;;;;3.88;2.25;;;10.90;99.90;;;;;;8163717;29;20027;-79
2023/03/20 08:16:39;;;;;;;5.07;2.58;;;11.10;99.90;;;;;;8163356;29;20168;-79
2023/03/20 08:20:40;;;;;;;3.78;2.22;;;10.80;99.90;;;;;;8163464;29;20481;-78
2023/03/20 08:24:40;;;;;;;3.80;2.28;;;11.20;99.90;;;;;;8164004;29;20036;-79
2023/03/20 08:28:41;;;;;;;2.58;1.70;;;11.50;99.90;;;;;;8164850;29;20093;-79
2023/03/20 08:32:41;;;;;;;2.47;1.58;;;11.80;99.90;;;;;;8165955;29;20423;-78
2023/03/20 08:36:42;;;;;;;2.75;1.60;;;12.50;99.90;;;;;;8165434;29;20074;-77
2023/03/20 08:40:43;;;;;;;2.25;1.67;;;12.80;99.90;;;;;;8163699;29;20034;-78
2023/03/20 08:44:44;;;;;;;1.58;1.20;;;12.60;99.90;;;;;;8145600;29;20070;-78
2023/03/20 08:48:44;;;;;;;3.15;1.30;;;12.50;99.90;;;;;;8145950;29;20023;-79
2023/03/20 08:52:45;;;;;;;1.75;1.13;;;12.20;99.90;;;;;;8163000;29;20032;-79
2023/03/20 08:56:46;;;;;;;1.42;1.13;;;11.90;99.90;;;;;;8162266;29;20031;-78
2023/03/20 09:00:46;;;;;;;1.90;1.15;;;11.80;99.90;;;;;;8160414;29;20448;-78
2023/03/20 09:04:47;;;;;;;1.48;1.10;;;12.00;99.90;;;;;;8141183;29;20046;-78
2023/03/20 09:08:47;;;;;;;1.42;1.27;;;12.30;99.90;;;;;;8152829;29;20024;-78
2023/03/20 09:12:48;;;;;;;1.35;1.00;;;12.90;99.90;;;;;;8156987;29;20371;-78
2023/03/20 09:16:49;;;;;;;1.00;0.90;;;13.50;99.90;;;;;;8161318;29;20032;-78
2023/03/20 09:20:50;;;;;;;1.30;0.80;;;13.20;99.90;;;;;;8160938;29;20030;-79
2023/03/20 09:24:51;;;;;;;2.30;0.80;;;13.20;99.90;;;;;;8159510;29;20043;-78
2023/03/20 09:28:51;;;;;;;0.63;0.60;;;13.30;99.90;;;;;;8163317;29;20040;-78
2023/03/20 09:32:52;;;;;;;0.85;0.70;;;13.30;99.90;;;;;;8161793;29;20027;-79
2023/03/20 09:36:52;;;;;;;0.80;0.63;;;13.20;99.90;;;;;;8161098;29;20103;-78
2023/03/20 09:40:57;;;;;;;1.48;0.60;;;13.30;99.90;;;;;;8160083;29;20063;-78
2023/03/20 09:45:10;;;;;;;0.73;0.60;;;13.80;99.90;;;;;;8160783;29;20035;-78
2023/03/20 09:49:28;;;;;;;0.65;0.63;;;13.70;99.90;;;;;;8159321;29;20413;-79
2023/03/20 09:53:32;;;;;;;1.13;1.02;;;13.70;99.90;;;;;;8158866;29;20030;-78
2023/03/20 09:57:41;;;;;;;0.85;0.60;;;14.10;99.90;;;;;;8160987;29;20392;-77
2023/03/20 10:01:49;;;;;;;1.13;0.70;;;14.10;99.90;;;;;;8145367;29;20039;-78
2023/03/20 10:06:12;;;;;;;1.58;0.82;;;13.50;99.90;;;;;;8160518;29;20445;-78
2023/03/20 10:10:14;;;;;;;1.02;0.70;;;13.50;99.90;;;;;;8162022;29;20062;-78
2023/03/20 10:14:41;;;;;;;0.95;0.80;;;13.90;99.90;;;;;;8166876;29;20106;-78
2023/03/20 10:19:16;;;;;;;1.17;0.70;;;14.30;99.90;;;;;;8167080;29;20087;-79
2023/03/20 10:23:29;;;;;;;1.38;1.02;;;14.40;99.90;;;;;;8115354;29;20115;-78
2023/03/20 10:27:36;;;;;;;0.90;0.80;;;14.40;99.90;;;;;;8163090;29;20023;-79
2023/03/20 10:32:00;;;;;;;1.20;0.80;;;14.40;99.90;;;;;;8166989;29;20026;-79
2023/03/20 10:36:13;;;;;;;2.97;1.10;;;15.10;99.90;;;;;;8159532;29;20508;-78
2023/03/20 10:40:28;;;;;;;2.53;1.00;;;15.40;99.90;;;;;;8164828;29;20032;-79
2023/03/20 10:44:35;;;;;;;1.40;0.88;;;14.80;99.90;;;;;;8164572;29;20520;-78
2023/03/20 10:48:57;;;;;;;1.40;0.90;;;14.40;99.90;;;;;;8166008;29;20485;-78
2023/03/20 10:53:01;;;;;;;0.77;0.70;;;13.70;99.90;;;;;;8164883;29;20039;-78
2023/03/20 10:57:04;;;;;;;1.20;0.80;;;13.50;99.90;;;;;;8166310;29;20055;-79
2023/03/20 11:01:05;;;;;;;1.02;0.93;;;13.40;99.90;;;;;;8166958;29;20024;-79
2023/03/20 11:05:28;;;;;;;1.10;0.80;;;13.30;99.90;;;;;;8165412;29;20032;-78
2023/03/20 11:09:30;;;;;;;1.15;0.90;;;13.20;99.90;;;;;;8165656;29;20020;-79
2023/03/20 11:13:33;;;;;;;1.15;0.98;;;13.20;99.90;;;;;;8164952;29;20035;-79
2023/03/20 11:17:34;;;;;;;0.98;0.88;;;13.20;99.90;;;;;;8164714;29;20027;-79
2023/03/20 11:21:44;;;;;;;2.28;0.90;;;13.10;99.90;;;;;;8148434;29;20377;-78
2023/03/20 11:25:59;;;;;;;0.90;0.80;;;13.00;99.90;;;;;;8166490;29;20576;-78
2023/03/20 11:30:06;;;;;;;1.95;0.90;;;13.30;99.90;;;;;;8157088;29;20028;-78
2023/03/20 11:34:12;;;;;;;2.60;0.80;;;13.50;99.90;;;;;;8164164;29;20112;-79
2023/03/20 11:38:16;;;;;;;1.73;0.90;;;13.60;99.90;;;;;;8162558;29;20031;-78
2023/03/20 11:42:22;;;;;;;0.90;0.80;;;14.30;99.90;;;;;;8158917;29;20040;-79
2023/03/20 11:46:24;;;;;;;1.63;0.80;;;15.00;99.90;;;;;;8162755;29;20420;-79
2023/03/20 11:50:34;;;;;;;1.48;0.60;;;15.10;99.90;;;;;;8162635;29;20054;-79
2023/03/20 11:54:36;;;;;;;0.67;0.60;;;14.70;99.90;;;;;;8163049;29;20501;-79
2023/03/20 11:59:13;;;;;;;0.70;0.52;;;13.90;99.90;;;;;;8163564;29;20323;-78
2023/03/20 12:03:39;;;;;;;0.50;0.50;;;13.40;99.90;;;;;;8147015;29;20092;-78
2023/03/20 12:07:39;;;;;;;1.13;0.70;;;13.20;99.90;;;;;;8163231;29;20123;-79
2023/03/20 12:11:51;;;;;;;0.60;0.60;;;13.40;99.90;;;;;;8162476;29;20548;-79
2023/03/20 12:16:04;;;;;;;0.65;0.65;;;13.60;99.90;;;;;;8162557;29;20044;-79
2023/03/20 12:20:32;;;;;;;0.73;0.60;;;13.70;99.90;;;;;;8163012;29;20492;-78
2023/03/20 12:24:43;;;;;;;0.70;0.68;;;13.70;99.90;;;;;;8164135;29;20027;-79
2023/03/20 12:29:22;;;;;;;1.88;0.60;;;13.60;99.90;;;;;;8162605;29;20027;-79
2023/03/20 12:34:04;;;;;;;1.70;0.52;;;13.50;99.90;;;;;;8140723;29;20036;-78
2023/03/20 12:38:21;;;;;;;0.50;0.50;;;13.00;99.90;;;;;;8157695;29;20019;-78
2023/03/20 12:42:37;;;;;;;1.05;0.63;;;13.00;99.90;;;;;;8163793;29;20222;-78
2023/03/20 12:46:56;;;;;;;0.40;0.40;;;12.90;99.90;;;;;;8163231;29;20030;-79
2023/03/20 12:51:15;;;;;;;0.50;0.50;;;13.00;99.90;;;;;;8162384;29;20032;-78
2023/03/20 12:55:41;;;;;;;0.73;0.70;;;13.60;99.90;;;;;;8161616;29;20030;-79
2023/03/20 12:59:48;;;;;;;0.40;0.40;;;13.60;99.90;;;;;;8162071;29;20028;-79
2023/03/20 13:04:08;;;;;;;0.90;0.70;;;13.50;99.90;;;;;;8162453;29;20425;-79
2023/03/20 13:08:46;;;;;;;0.60;0.60;;;12.90;99.90;;;;;;8161738;29;20181;-78
2023/03/20 13:12:56;;;;;;;0.30;0.30;;;12.80;99.90;;;;;;8159178;29;20090;-78
2023/03/20 13:17:01;;;;;;;0.33;0.33;;;13.20;99.90;;;;;;8153510;29;20066;-78
2023/03/20 13:21:09;;;;;;;0.60;0.60;;;13.40;99.90;;;;;;8153388;29;20106;-79
2023/03/20 13:25:38;;;;;;;0.77;0.50;;;14.40;99.90;;;;;;8160755;29;20036;-79
2023/03/20 13:30:14;;;;;;;0.52;0.52;;;15.90;99.90;;;;;;8158585;29;20032;-79
2023/03/20 13:34:50;;;;;;;1.00;0.70;;;15.70;99.90;;;;;;8114206;29;20062;-80
2023/03/20 13:39:11;;;;;;;1.23;0.60;;;15.40;99.90;;;;;;8159891;29;20082;-79
2023/03/20 13:43:29;;;;;;;0.90;0.65;;;14.80;99.90;;;;;;8157663;29;20020;-79
2023/03/20 13:47:31;;;;;;;1.00;0.70;;;14.20;99.90;;;;;;8164889;29;20027;-79
2023/03/20 13:51:43;;;;;;;0.95;0.60;;;14.10;99.90;;;;;;8167203;29;20091;-78
2023/03/20 13:55:59;;;;;;;1.23;0.73;;;13.40;99.90;;;;;;8169090;29;20032;-78
2023/03/20 14:00:19;;;;;;;0.85;0.60;;;13.20;99.90;;;;;;8162843;29;20103;-79
2023/03/20 14:04:22;;;;;;;1.10;0.73;;;13.10;99.90;;;;;;8168796;29;20084;-79
2023/03/20 14:08:26;;;;;;;0.60;0.60;;;13.30;99.90;;;;;;8167129;29;20047;-79
2023/03/20 14:12:31;;;;;;;0.95;0.70;;;13.30;99.90;;;;;;8166781;29;20274;-79
2023/03/20 14:16:32;;;;;;;0.60;0.57;;;13.60;99.90;;;;;;8168664;29;20035;-79
2023/03/20 14:20:38;;;;;;;0.50;0.50;;;14.00;99.90;;;;;;8166944;29;20114;-79
2023/03/20 14:24:41;;;;;;;0.80;0.70;;;14.60;99.90;;;;;;8165117;29;20031;-79
2023/03/20 14:28:59;;;;;;;0.60;0.60;;;14.70;99.90;;;;;;8167452;29;20062;-79
2023/03/20 14:33:14;;;;;;;3.72;0.70;;;15.30;99.90;;;;;;8163000;29;20024;-79
2023/03/20 14:37:37;;;;;;;3.03;0.60;;;16.30;99.90;;;;;;8164505;29;20511;-80
2023/03/20 14:41:59;;;;;;;1.13;0.77;;;17.10;99.90;;;;;;8164974;29;20075;-79
2023/03/20 14:46:26;;;;;;;0.93;0.70;;;16.70;99.90;;;;;;8166075;29;20492;-79
2023/03/20 14:50:41;;;;;;;0.93;0.80;;;16.30;99.90;;;;;;8168704;29;20051;-79
2023/03/20 14:54:41;;;;;;;0.68;0.68;;;16.00;99.90;;;;;;8167269;29;20378;-80
2023/03/20 14:58:45;;;;;;;0.57;0.57;;;15.70;99.90;;;;;;8169401;29;20126;-80
2023/03/20 15:02:52;;;;;;;0.57;0.57;;;15.10;99.90;;;;;;8153190;29;20481;-80
2023/03/20 15:07:25;;;;;;;0.90;0.70;;;15.40;99.90;;;;;;8170493;29;20488;-79
2023/03/20 15:11:26;;;;;;;0.60;0.60;;;15.00;99.90;;;;;;8141437;29;20098;-80
2023/03/20 15:15:30;;;;;;;0.65;0.60;;;18.80;99.90;;;;;;8154237;29;20028;-79
2023/03/20 15:19:32;;;;;;;0.50;0.50;;;21.20;95.10;;;;;;8169423;29;20027;-81
2023/03/20 15:23:33;;;;;;;1.10;0.88;;;20.90;94.80;;;;;;8171992;29;20377;-81
2023/03/20 15:27:33;;;;;;;0.65;0.63;;;20.30;92.50;;;;;;8170466;29;20035;-81
2023/03/20 15:31:37;;;;;;;0.65;0.60;;;18.00;94.50;;;;;;8170348;29;20031;-81
2023/03/20 15:35:38;;;;;;;1.27;0.75;;;15.10;99.90;;;;;;8172327;29;20051;-80
2023/03/20 15:39:48;;;;;;;0.70;0.60;;;13.60;99.90;;;;;;8169598;29;20039;-82
2023/03/20 15:43:48;;;;;;;3.47;0.63;;;13.20;99.90;;;;;;8170531;29;20447;-80
2023/03/20 15:47:49;;;;;;;0.88;0.63;;;12.50;99.90;;;;;;8168938;29;20035;-81
2023/03/20 15:51:51;;;;;;;0.90;0.60;;;12.20;99.90;;;;;;8166646;29;20128;-81
2023/03/20 15:56:10;;;;;;;1.95;0.70;;;12.30;99.90;;;;;;8167089;29;20023;-81
2023/03/20 16:00:19;;;;;;;1.23;0.85;;;12.40;99.90;;;;;;8169120;29;20027;-80
2023/03/20 16:04:20;;;;;;;1.10;0.80;;;12.60;99.90;;;;;;8171612;29;20066;-81
2023/03/20 16:08:26;;;;;;;1.00;0.70;;;13.10;99.90;;;;;;8168585;29;20027;-81
2023/03/20 16:12:27;;;;;;;0.77;0.77;;;13.90;99.90;;;;;;8150590;29;20041;-81
2023/03/20 16:16:33;;;;;;;1.83;0.57;;;13.80;99.90;;;;;;8164903;29;20024;-81
2023/03/20 16:20:39;;;;;;;1.05;0.70;;;13.10;99.90;;;;;;8152037;29;20035;-80
2023/03/20 16:24:41;;;;;;;0.60;0.60;;;12.60;99.90;;;;;;8166259;29;20043;-81
2023/03/20 16:28:45;;;;;;;1.10;0.73;;;12.50;99.90;;;;;;8167193;29;20032;-80
2023/03/20 16:32:52;;;;;;;1.00;0.70;;;13.50;99.90;;;;;;8146962;29;20028;-79
2023/03/20 16:37:20;;;;;;;1.27;0.77;;;13.70;99.90;;;;;;8166616;29;20480;-80
2023/03/20 16:41:28;;;;;;;0.70;0.70;;;12.90;99.90;;;;;;8164694;29;20035;-81
2023/03/20 16:45:32;;;;;;;2.08;0.82;;;12.00;99.90;;;;;;8165802;29;20110;-80
2023/03/20 16:49:49;;;;;;;1.20;0.98;;;11.40;99.90;;;;;;8165928;29;20110;-80
2023/03/20 16:53:54;;;;;;;1.42;0.93;;;10.90;99.90;;;;;;8184812;23;20049;-82
2023/03/20 16:58:03;;;;;;;1.80;1.10;;;10.40;99.90;;;;;;8185110;28;20091;-82
2023/03/20 17:02:11;;;;;;;1.45;1.10;;;10.10;99.90;;;;;;8180628;28;20084;-82
2023/03/20 17:06:17;;;;;;;1.40;1.30;;;9.80;99.90;;;;;;8191367;28;20119;-82
2023/03/20 17:10:20;;;;;;;5.18;1.23;;;9.50;99.90;;;;;;8170586;29;20028;-82
2023/03/20 17:14:21;;;;;;;1.00;0.90;;;9.30;99.90;;;;;;8183985;28;20016;-81
2023/03/20 17:18:21;;;;;;;1.08;0.80;;;9.20;99.90;;;;;;8168484;29;20019;-82
2023/03/20 17:22:24;;;;;;;1.30;0.80;;;9.10;99.90;;;;;;8190157;28;20102;-82
2023/03/20 17:26:25;;;;;;;1.63;0.80;;;9.00;99.90;;;;;;8175458;29;20520;-82
2023/03/20 17:30:25;;;;;;;0.60;0.50;;;8.80;99.90;;;;;;8174936;29;20028;-81
2023/03/20 17:34:26;;;;;;;2.55;1.10;;;8.70;99.90;;;;;;8188860;28;20089;-82
2023/03/20 17:38:26;;;;;;;2.03;0.70;;;8.50;99.90;;;;;;8172368;29;20766;-82
2023/03/20 17:42:30;;;;;;;1.65;0.77;;;8.20;99.90;;;;;;8170873;29;20047;-82
2023/03/20 17:46:31;;;;;;;1.70;0.90;;;8.20;99.90;;;;;;8176860;29;20038;-82
2023/03/20 17:50:31;;;;;;;1.50;0.90;;;8.20;99.90;;;;;;8190770;28;20020;-82
2023/03/20 17:54:32;;;;;;;0.85;0.68;;;8.20;99.90;;;;;;8187938;28;20762;-82
2023/03/20 17:58:32;;;;;;;4.78;0.90;;;7.90;99.90;;;;;;8169387;29;20027;-82
2023/03/20 18:02:33;;;;;;;0.80;0.68;;;7.50;99.90;;;;;;8170547;29;20155;-81
2023/03/20 18:06:34;;;;;;;1.35;0.80;;;7.40;99.90;;;;;;8174331;29;20036;-82
2023/03/20 18:10:35;;;;;;;1.63;0.80;;;7.10;99.90;;;;;;8168156;29;20489;-81
2023/03/20 18:14:37;;;;;;;1.17;0.82;;;6.70;99.90;;;;;;8193135;28;20027;-82
2023/03/20 18:18:37;;;;;;;0.80;0.70;;;7.00;99.90;;;;;;8172951;29;20012;-82
2023/03/20 18:22:38;;;;;;;0.63;0.55;;;7.10;99.90;;;;;;8172439;29;20031;-82
2023/03/20 18:26:38;;;;;;;1.33;0.90;;;7.10;99.90;;;;;;8190062;28;20582;-82
2023/03/20 18:30:40;;;;;;;2.28;0.85;;;6.90;99.90;;;;;;8164341;29;20024;-82
2023/03/20 18:34:41;;;;;;;1.67;0.95;;;6.60;99.90;;;;;;8171146;29;20019;-81
2023/03/20 18:38:42;;;;;;;1.90;1.10;;;6.80;99.90;;;;;;8172729;29;20027;-81
2023/03/20 18:42:42;;;;;;;3.78;0.82;;;6.80;99.90;;;;;;8173272;29;20023;-82
2023/03/20 18:46:43;;;;;;;3.22;1.15;;;6.50;99.90;;;;;;8174638;29;20024;-82
2023/03/20 18:50:43;;;;;;;1.30;1.02;;;6.30;99.90;;;;;;8186689;28;20031;-82
2023/03/20 18:54:44;;;;;;;1.92;1.42;;;6.20;99.90;;;;;;8166553;29;20027;-82
2023/03/20 18:58:57;;;;;;;2.85;1.75;;;6.10;99.90;;;;;;8172167;29;20074;-82
2023/03/20 19:03:03;;;;;;;3.70;2.30;;;6.10;99.90;;;;;;8163639;29;20091;-82
2023/03/20 19:07:14;;;;;;;4.13;2.67;;;6.50;99.90;;;;;;8169506;29;20050;-82
2023/03/20 19:11:15;;;;;;;10.77;4.72;;;6.60;99.90;;;;;;8180828;29;20028;-82
2023/03/20 19:15:20;;;;;;;6.38;3.58;;;6.50;99.90;;;;;;8173540;29;20039;-83
2023/03/20 19:19:22;;;;;;;4.97;3.17;;;6.40;99.90;;;;;;8180895;29;20031;-82
2023/03/20 19:23:24;;;;;;;6.60;3.90;;;6.40;99.90;;;;;;8190543;28;20036;-83
2023/03/20 19:27:25;;;;;;;6.90;4.53;;;6.30;99.90;;;;;;8170894;29;20114;-82
2023/03/20 19:31:29;;;;;;;6.97;4.57;;;6.30;99.90;;;;;;8169875;29;20031;-82
2023/03/20 19:35:37;;;;;;;8.00;4.43;;;6.30;99.90;;;;;;8186475;28;20032;-82
2023/03/20 19:39:46;;;;;;;9.07;5.00;;;6.20;99.90;;;;;;8186494;28;20044;-82
2023/03/20 19:43:55;;;;;;;13.50;5.33;;;6.40;99.90;;;;;;8170556;29;20111;-83
2023/03/20 19:48:08;;;;;;;8.80;4.60;;;6.40;99.90;;;;;;8186331;28;20046;-82
2023/03/20 19:52:29;;;;;;;5.05;3.25;;;6.50;99.90;;;;;;8179641;28;20039;-83
2023/03/20 19:56:33;;;;;;;6.22;3.35;;;6.50;99.90;;;;;;8172197;29;20050;-82
2023/03/20 20:00:36;;;;;;;5.82;4.10;;;6.50;99.90;;;;;;8168160;29;20170;-83
2023/03/20 20:04:46;;;;;;;9.35;4.45;;;6.70;99.90;;;;;;8172490;29;20755;-83
2023/03/20 20:08:52;;;;;;;6.80;4.65;;;6.60;99.90;;;;;;8196676;28;20114;-82
2023/03/20 20:12:56;;;;;;;7.43;4.18;;;6.40;99.90;;;;;;8187587;28;20598;-83
2023/03/20 20:16:59;;;;;;;5.93;4.00;;;6.40;99.90;;;;;;8176069;29;20460;-82
2023/03/20 20:21:00;;;;;;;5.45;3.40;;;6.60;99.90;;;;;;8179823;29;20039;-82
2023/03/20 20:25:03;;;;;;;6.25;3.47;;;7.10;99.90;;;;;;8173339;29;20070;-82
2023/03/20 20:29:30;;;;;;;5.50;3.42;;;7.10;99.90;;;;;;8185383;28;20028;-83
2023/03/20 20:33:34;;;;;;;5.22;3.20;;;7.00;99.90;;;;;;8170249;29;20055;-82
2023/03/20 20:37:40;;;;;;;6.00;3.47;;;6.80;99.90;;;;;;8170822;29;20027;-82
2023/03/20 20:46:51;;;;;;;5.60;3.58;;;6.40;99.90;;;;;;8068481;29;20044;-81
2023/03/20 20:56:21;;;;;;;11.65;6.13;;;6.30;99.90;;;;;;8064723;29;20044;-81
2023/03/20 21:01:37;;;;;;;15.70;6.00;;;6.80;99.90;;;;;;8064197;29;20044;-80
2023/03/20 21:16:16;;;;;;;8.95;4.20;;;6.50;99.90;;;;;;8043725;29;20036;-81
2023/03/20 21:25:20;;;;;;;10.52;6.13;;;6.20;99.90;;;;;;8005232;29;20040;-80
2023/03/20 21:29:20;;;;;;;47.60;19.27;;;6.20;99.90;;;;;;8015577;29;20036;-80
2023/03/20 21:33:21;;;;;;;21.52;9.77;;;6.40;99.90;;;;;;8168095;29;20489;-80
2023/03/20 21:37:21;;;;;;;35.75;15.70;;;6.30;99.90;;;;;;8183234;28;20369;-81
2023/03/20 21:41:36;;;;;;;15.23;8.40;;;6.40;99.90;;;;;;8182551;28;20059;-81
2023/03/20 21:45:40;;;;;;;12.18;6.50;;;6.30;99.90;;;;;;8168097;29;20020;-81
2023/03/20 21:49:41;;;;;;;11.23;5.93;;;6.20;99.90;;;;;;8182856;28;20489;-81
2023/03/20 21:53:45;;;;;;;13.80;7.93;;;6.30;99.90;;;;;;8184221;28;20582;-81
2023/03/20 21:57:46;;;;;;;15.73;8.38;;;6.30;99.90;;;;;;8170393;29;20404;-80
2023/03/20 22:01:46;;;;;;;11.50;6.03;;;6.20;99.90;;;;;;8176462;29;20122;-81
2023/03/20 22:05:47;;;;;;;8.68;5.22;;;6.20;99.90;;;;;;8198407;28;20043;-81